sensor_id;sensor_type;location;lat;lon;timestamp;P1;durP1;ratioP1;P2;durP2;ratioP2
11933;SDS011;6026;48.784;9.198;2023-08-21T00:01:02;1.00;;;1.00;;
11933;SDS011;6026;48.784;9.198;2023-08-21T00:03:27;0.90;;;0.90;;
11933;SDS011;6026;48.784;9.198;2023-08-21T00:05:53;1.10;;;1.10;;
11933;SDS011;6026;48.784;9.198;2023-08-21T00:08:18;0.85;;;0.85;;
11933;SDS011;6026;48.784;9.198;2023-08-21T00:10:44;1.00;;;1.00;;
11933;SDS011;6026;48.784;9.198;2023-08-21T00:13:09;1.00;;;1.00;;
11933;SDS011;6026;48.784;9.198;2023-08-21T00:15:37;0.80;;;0.80;;
11933;SDS011;6026;48.784;9.198;2023-08-21T00:18:03;0.88;;;0.88;;
11933;SDS011;6026;48.784;9.198;2023-08-21T00:20:28;1.00;;;1.00;;
11933;SDS011;6026;48.784;9.198;2023-08-21T00:22:54;1.00;;;1.00;;
11933;SDS011;6026;48.784;9.198;2023-08-21T00:25:20;0.93;;;0.93;;
11933;SDS011;6026;48.784;9.198;2023-08-21T00:27:46;0.90;;;0.90;;
11933;SDS011;6026;48.784;9.198;2023-08-21T00:30:12;0.85;;;0.85;;
11933;SDS011;6026;48.784;9.198;2023-08-21T00:32:39;0.80;;;0.80;;
11933;SDS011;6026;48.784;9.198;2023-08-21T00:35:05;1.00;;;1.00;;
11933;SDS011;6026;48.784;9.198;2023-08-21T00:37:31;0.90;;;0.90;;
11933;SDS011;6026;48.784;9.198;2023-08-21T00:39:57;0.80;;;0.80;;
11933;SDS011;6026;48.784;9.198;2023-08-21T00:42:22;0.90;;;0.90;;
11933;SDS011;6026;48.784;9.198;2023-08-21T00:44:48;0.90;;;0.90;;
11933;SDS011;6026;48.784;9.198;2023-08-21T00:47:14;0.77;;;0.77;;
11933;SDS011;6026;48.784;9.198;2023-08-21T00:49:39;0.98;;;0.98;;
11933;SDS011;6026;48.784;9.198;2023-08-21T00:52:06;0.90;;;0.90;;
11933;SDS011;6026;48.784;9.198;2023-08-21T00:54:37;0.90;;;0.90;;
11933;SDS011;6026;48.784;9.198;2023-08-21T00:57:03;0.90;;;0.90;;
11933;SDS011;6026;48.784;9.198;2023-08-21T00:59:29;0.80;;;0.80;;
11933;SDS011;6026;48.784;9.198;2023-08-21T01:01:55;0.95;;;0.95;;
11933;SDS011;6026;48.784;9.198;2023-08-21T01:04:20;0.90;;;0.90;;
11933;SDS011;6026;48.784;9.198;2023-08-21T01:06:48;1.00;;;1.00;;
11933;SDS011;6026;48.784;9.198;2023-08-21T01:09:17;1.00;;;1.00;;
11933;SDS011;6026;48.784;9.198;2023-08-21T01:14:24;0.70;;;0.70;;
11933;SDS011;6026;48.784;9.198;2023-08-21T01:16:55;0.90;;;0.90;;
11933;SDS011;6026;48.784;9.198;2023-08-21T01:22:06;0.82;;;0.82;;
11933;SDS011;6026;48.784;9.198;2023-08-21T01:24:32;0.80;;;0.80;;
11933;SDS011;6026;48.784;9.198;2023-08-21T01:26:58;0.80;;;0.80;;
11933;SDS011;6026;48.784;9.198;2023-08-21T01:29:24;0.80;;;0.80;;
11933;SDS011;6026;48.784;9.198;2023-08-21T01:31:58;0.60;;;0.60;;
11933;SDS011;6026;48.784;9.198;2023-08-21T01:34:26;0.90;;;0.90;;
11933;SDS011;6026;48.784;9.198;2023-08-21T01:36:52;0.90;;;0.90;;
11933;SDS011;6026;48.784;9.198;2023-08-21T01:39:18;0.80;;;0.80;;
11933;SDS011;6026;48.784;9.198;2023-08-21T01:41:44;0.85;;;0.85;;
11933;SDS011;6026;48.784;9.198;2023-08-21T01:44:09;0.70;;;0.70;;
11933;SDS011;6026;48.784;9.198;2023-08-21T01:46:35;0.80;;;0.80;;
11933;SDS011;6026;48.784;9.198;2023-08-21T01:49:01;0.90;;;0.90;;
11933;SDS011;6026;48.784;9.198;2023-08-21T01:51:26;0.80;;;0.80;;
11933;SDS011;6026;48.784;9.198;2023-08-21T01:53:52;0.80;;;0.80;;
11933;SDS011;6026;48.784;9.198;2023-08-21T01:56:17;0.88;;;0.88;;
11933;SDS011;6026;48.784;9.198;2023-08-21T01:58:43;0.80;;;0.80;;
11933;SDS011;6026;48.784;9.198;2023-08-21T02:01:08;0.80;;;0.80;;
11933;SDS011;6026;48.784;9.198;2023-08-21T02:03:34;0.80;;;0.80;;
11933;SDS011;6026;48.784;9.198;2023-08-21T02:05:59;0.80;;;0.80;;
11933;SDS011;6026;48.784;9.198;2023-08-21T02:08:26;0.80;;;0.80;;
11933;SDS011;6026;48.784;9.198;2023-08-21T02:10:57;0.80;;;0.80;;
11933;SDS011;6026;48.784;9.198;2023-08-21T02:13:23;0.70;;;0.70;;
11933;SDS011;6026;48.784;9.198;2023-08-21T02:15:48;0.82;;;0.82;;
11933;SDS011;6026;48.784;9.198;2023-08-21T02:18:14;0.80;;;0.80;;
11933;SDS011;6026;48.784;9.198;2023-08-21T02:20:40;0.70;;;0.70;;
11933;SDS011;6026;48.784;9.198;2023-08-21T02:23:05;0.75;;;0.75;;
11933;SDS011;6026;48.784;9.198;2023-08-21T02:25:31;0.70;;;0.70;;
11933;SDS011;6026;48.784;9.198;2023-08-21T02:27:57;0.80;;;0.80;;
11933;SDS011;6026;48.784;9.198;2023-08-21T02:30:23;0.80;;;0.80;;
11933;SDS011;6026;48.784;9.198;2023-08-21T02:32:50;0.82;;;0.82;;
11933;SDS011;6026;48.784;9.198;2023-08-21T02:35:22;0.75;;;0.75;;
11933;SDS011;6026;48.784;9.198;2023-08-21T02:37:48;0.60;;;0.60;;
11933;SDS011;6026;48.784;9.198;2023-08-21T02:40:14;0.90;;;0.90;;
11933;SDS011;6026;48.784;9.198;2023-08-21T02:42:39;0.75;;;0.75;;
11933;SDS011;6026;48.784;9.198;2023-08-21T02:45:05;0.70;;;0.70;;
11933;SDS011;6026;48.784;9.198;2023-08-21T02:47:37;0.80;;;0.80;;
11933;SDS011;6026;48.784;9.198;2023-08-21T02:50:07;1.60;;;1.60;;
11933;SDS011;6026;48.784;9.198;2023-08-21T02:52:34;0.75;;;0.75;;
11933;SDS011;6026;48.784;9.198;2023-08-21T02:55:00;0.77;;;0.77;;
11933;SDS011;6026;48.784;9.198;2023-08-21T02:57:26;0.80;;;0.80;;
11933;SDS011;6026;48.784;9.198;2023-08-21T02:59:53;0.65;;;0.65;;
11933;SDS011;6026;48.784;9.198;2023-08-21T03:02:19;0.75;;;0.75;;
11933;SDS011;6026;48.784;9.198;2023-08-21T03:04:45;0.88;;;0.88;;
11933;SDS011;6026;48.784;9.198;2023-08-21T03:07:10;0.70;;;0.70;;
11933;SDS011;6026;48.784;9.198;2023-08-21T03:09:36;0.77;;;0.77;;
11933;SDS011;6026;48.784;9.198;2023-08-21T03:12:02;0.80;;;0.80;;
11933;SDS011;6026;48.784;9.198;2023-08-21T03:14:28;0.80;;;0.80;;
11933;SDS011;6026;48.784;9.198;2023-08-21T03:16:54;0.82;;;0.82;;
11933;SDS011;6026;48.784;9.198;2023-08-21T03:19:20;0.68;;;0.68;;
11933;SDS011;6026;48.784;9.198;2023-08-21T03:21:45;0.85;;;0.85;;
11933;SDS011;6026;48.784;9.198;2023-08-21T03:24:11;0.90;;;0.90;;
11933;SDS011;6026;48.784;9.198;2023-08-21T03:26:36;0.70;;;0.70;;
11933;SDS011;6026;48.784;9.198;2023-08-21T03:29:02;0.70;;;0.70;;
11933;SDS011;6026;48.784;9.198;2023-08-21T03:31:28;0.80;;;0.80;;
11933;SDS011;6026;48.784;9.198;2023-08-21T03:33:54;0.70;;;0.70;;
11933;SDS011;6026;48.784;9.198;2023-08-21T03:36:20;0.80;;;0.80;;
11933;SDS011;6026;48.784;9.198;2023-08-21T03:38:45;0.73;;;0.73;;
11933;SDS011;6026;48.784;9.198;2023-08-21T03:41:11;0.80;;;0.80;;
11933;SDS011;6026;48.784;9.198;2023-08-21T03:43:37;0.80;;;0.80;;
11933;SDS011;6026;48.784;9.198;2023-08-21T03:46:03;0.80;;;0.80;;
11933;SDS011;6026;48.784;9.198;2023-08-21T03:48:28;0.80;;;0.80;;
11933;SDS011;6026;48.784;9.198;2023-08-21T03:50:54;0.90;;;0.90;;
11933;SDS011;6026;48.784;9.198;2023-08-21T03:53:20;0.80;;;0.80;;
11933;SDS011;6026;48.784;9.198;2023-08-21T03:55:45;0.70;;;0.70;;
11933;SDS011;6026;48.784;9.198;2023-08-21T03:58:11;0.70;;;0.70;;
11933;SDS011;6026;48.784;9.198;2023-08-21T04:00:38;0.70;;;0.70;;
11933;SDS011;6026;48.784;9.198;2023-08-21T04:03:04;0.77;;;0.77;;
11933;SDS011;6026;48.784;9.198;2023-08-21T04:05:29;0.60;;;0.60;;
11933;SDS011;6026;48.784;9.198;2023-08-21T04:07:55;0.67;;;0.67;;
11933;SDS011;6026;48.784;9.198;2023-08-21T04:10:20;0.70;;;0.70;;
11933;SDS011;6026;48.784;9.198;2023-08-21T04:12:46;0.80;;;0.80;;
11933;SDS011;6026;48.784;9.198;2023-08-21T04:15:11;0.85;;;0.85;;
11933;SDS011;6026;48.784;9.198;2023-08-21T04:17:37;0.70;;;0.70;;
11933;SDS011;6026;48.784;9.198;2023-08-21T04:20:03;0.60;;;0.60;;
11933;SDS011;6026;48.784;9.198;2023-08-21T04:22:29;0.80;;;0.80;;
11933;SDS011;6026;48.784;9.198;2023-08-21T04:24:54;0.80;;;0.80;;
11933;SDS011;6026;48.784;9.198;2023-08-21T04:27:20;0.70;;;0.70;;
11933;SDS011;6026;48.784;9.198;2023-08-21T04:29:45;0.63;;;0.63;;
11933;SDS011;6026;48.784;9.198;2023-08-21T04:32:11;0.80;;;0.80;;
11933;SDS011;6026;48.784;9.198;2023-08-21T04:34:37;0.70;;;0.70;;
11933;SDS011;6026;48.784;9.198;2023-08-21T04:37:02;0.87;;;0.87;;
11933;SDS011;6026;48.784;9.198;2023-08-21T04:39:29;0.70;;;0.70;;
11933;SDS011;6026;48.784;9.198;2023-08-21T04:41:55;0.90;;;0.90;;
11933;SDS011;6026;48.784;9.198;2023-08-21T04:44:21;0.60;;;0.60;;
11933;SDS011;6026;48.784;9.198;2023-08-21T04:46:48;0.70;;;0.70;;
11933;SDS011;6026;48.784;9.198;2023-08-21T04:49:15;0.73;;;0.73;;
11933;SDS011;6026;48.784;9.198;2023-08-21T04:51:41;0.70;;;0.70;;
11933;SDS011;6026;48.784;9.198;2023-08-21T04:54:06;0.70;;;0.70;;
11933;SDS011;6026;48.784;9.198;2023-08-21T04:56:32;0.70;;;0.70;;
11933;SDS011;6026;48.784;9.198;2023-08-21T04:58:57;0.80;;;0.80;;
11933;SDS011;6026;48.784;9.198;2023-08-21T05:01:23;0.90;;;0.90;;
11933;SDS011;6026;48.784;9.198;2023-08-21T05:03:49;0.70;;;0.70;;
11933;SDS011;6026;48.784;9.198;2023-08-21T05:06:15;0.80;;;0.80;;
11933;SDS011;6026;48.784;9.198;2023-08-21T05:08:41;0.63;;;0.63;;
11933;SDS011;6026;48.784;9.198;2023-08-21T05:11:06;0.73;;;0.73;;
11933;SDS011;6026;48.784;9.198;2023-08-21T05:13:32;0.93;;;0.93;;
11933;SDS011;6026;48.784;9.198;2023-08-21T05:15:58;0.70;;;0.70;;
11933;SDS011;6026;48.784;9.198;2023-08-21T05:18:24;0.70;;;0.70;;
11933;SDS011;6026;48.784;9.198;2023-08-21T05:20:51;0.73;;;0.73;;
11933;SDS011;6026;48.784;9.198;2023-08-21T05:23:19;0.77;;;0.77;;
11933;SDS011;6026;48.784;9.198;2023-08-21T05:25:45;0.90;;;0.90;;
11933;SDS011;6026;48.784;9.198;2023-08-21T05:28:12;0.70;;;0.70;;
11933;SDS011;6026;48.784;9.198;2023-08-21T05:30:37;0.90;;;0.90;;
11933;SDS011;6026;48.784;9.198;2023-08-21T05:33:03;0.70;;;0.70;;
11933;SDS011;6026;48.784;9.198;2023-08-21T05:35:32;0.77;;;0.77;;
11933;SDS011;6026;48.784;9.198;2023-08-21T05:38:04;0.80;;;0.80;;
11933;SDS011;6026;48.784;9.198;2023-08-21T05:40:30;0.90;;;0.90;;
11933;SDS011;6026;48.784;9.198;2023-08-21T05:42:57;0.70;;;0.70;;
11933;SDS011;6026;48.784;9.198;2023-08-21T05:45:23;0.80;;;0.80;;
11933;SDS011;6026;48.784;9.198;2023-08-21T05:47:48;0.70;;;0.70;;
11933;SDS011;6026;48.784;9.198;2023-08-21T05:50:14;0.80;;;0.80;;
11933;SDS011;6026;48.784;9.198;2023-08-21T05:52:39;0.73;;;0.73;;
11933;SDS011;6026;48.784;9.198;2023-08-21T05:55:05;1.00;;;1.00;;
11933;SDS011;6026;48.784;9.198;2023-08-21T05:57:31;0.90;;;0.90;;
11933;SDS011;6026;48.784;9.198;2023-08-21T05:59:56;1.00;;;1.00;;
11933;SDS011;6026;48.784;9.198;2023-08-21T06:02:22;1.08;;;1.08;;
11933;SDS011;6026;48.784;9.198;2023-08-21T06:04:49;1.10;;;1.10;;
11933;SDS011;6026;48.784;9.198;2023-08-21T06:07:15;1.10;;;1.10;;
11933;SDS011;6026;48.784;9.198;2023-08-21T06:09:40;1.17;;;1.17;;
11933;SDS011;6026;48.784;9.198;2023-08-21T06:12:06;1.20;;;1.20;;
11933;SDS011;6026;48.784;9.198;2023-08-21T06:14:32;1.27;;;1.27;;
11933;SDS011;6026;48.784;9.198;2023-08-21T06:16:58;1.30;;;1.30;;
11933;SDS011;6026;48.784;9.198;2023-08-21T06:19:26;1.30;;;1.30;;
11933;SDS011;6026;48.784;9.198;2023-08-21T06:21:52;1.40;;;1.40;;
11933;SDS011;6026;48.784;9.198;2023-08-21T06:24:17;1.50;;;1.50;;
11933;SDS011;6026;48.784;9.198;2023-08-21T06:26:43;1.52;;;1.52;;
11933;SDS011;6026;48.784;9.198;2023-08-21T06:29:08;1.52;;;1.52;;
11933;SDS011;6026;48.784;9.198;2023-08-21T06:31:34;1.60;;;1.60;;
11933;SDS011;6026;48.784;9.198;2023-08-21T06:33:59;1.60;;;1.60;;
11933;SDS011;6026;48.784;9.198;2023-08-21T06:36:25;1.60;;;1.60;;
11933;SDS011;6026;48.784;9.198;2023-08-21T06:38:51;1.60;;;1.60;;
11933;SDS011;6026;48.784;9.198;2023-08-21T06:41:16;1.75;;;1.70;;
11933;SDS011;6026;48.784;9.198;2023-08-21T06:43:42;1.70;;;1.70;;
11933;SDS011;6026;48.784;9.198;2023-08-21T06:46:07;1.63;;;1.63;;
11933;SDS011;6026;48.784;9.198;2023-08-21T06:48:34;2.00;;;1.90;;
11933;SDS011;6026;48.784;9.198;2023-08-21T06:51:01;1.90;;;1.80;;
11933;SDS011;6026;48.784;9.198;2023-08-21T06:53:27;1.90;;;1.80;;
11933;SDS011;6026;48.784;9.198;2023-08-21T06:55:53;1.88;;;1.77;;
11933;SDS011;6026;48.784;9.198;2023-08-21T06:58:19;1.85;;;1.75;;
11933;SDS011;6026;48.784;9.198;2023-08-21T07:00:44;1.90;;;1.80;;
11933;SDS011;6026;48.784;9.198;2023-08-21T07:03:10;1.95;;;1.85;;
11933;SDS011;6026;48.784;9.198;2023-08-21T07:05:36;1.90;;;1.80;;
11933;SDS011;6026;48.784;9.198;2023-08-21T07:08:02;2.08;;;1.98;;
11933;SDS011;6026;48.784;9.198;2023-08-21T07:10:28;2.00;;;1.90;;
11933;SDS011;6026;48.784;9.198;2023-08-21T07:12:54;2.00;;;1.90;;
11933;SDS011;6026;48.784;9.198;2023-08-21T07:15:20;2.08;;;1.98;;
11933;SDS011;6026;48.784;9.198;2023-08-21T07:17:46;2.17;;;2.08;;
11933;SDS011;6026;48.784;9.198;2023-08-21T07:20:12;2.10;;;2.00;;
11933;SDS011;6026;48.784;9.198;2023-08-21T07:22:37;2.10;;;2.00;;
11933;SDS011;6026;48.784;9.198;2023-08-21T07:25:04;2.20;;;2.10;;
11933;SDS011;6026;48.784;9.198;2023-08-21T07:27:30;2.05;;;1.95;;
11933;SDS011;6026;48.784;9.198;2023-08-21T07:29:56;2.20;;;2.10;;
11933;SDS011;6026;48.784;9.198;2023-08-21T07:32:22;2.10;;;2.00;;
11933;SDS011;6026;48.784;9.198;2023-08-21T07:34:47;2.30;;;2.20;;
11933;SDS011;6026;48.784;9.198;2023-08-21T07:37:17;2.20;;;2.10;;
11933;SDS011;6026;48.784;9.198;2023-08-21T07:39:42;2.30;;;2.20;;
11933;SDS011;6026;48.784;9.198;2023-08-21T07:42:10;2.20;;;2.10;;
11933;SDS011;6026;48.784;9.198;2023-08-21T07:44:38;2.30;;;2.20;;
11933;SDS011;6026;48.784;9.198;2023-08-21T07:47:04;2.38;;;2.28;;
11933;SDS011;6026;48.784;9.198;2023-08-21T07:49:30;2.35;;;2.25;;
11933;SDS011;6026;48.784;9.198;2023-08-21T07:51:57;2.38;;;2.28;;
11933;SDS011;6026;48.784;9.198;2023-08-21T07:54:22;2.30;;;2.20;;
11933;SDS011;6026;48.784;9.198;2023-08-21T07:56:49;2.20;;;2.10;;
11933;SDS011;6026;48.784;9.198;2023-08-21T07:59:14;2.20;;;2.10;;
11933;SDS011;6026;48.784;9.198;2023-08-21T08:01:40;2.30;;;2.20;;
11933;SDS011;6026;48.784;9.198;2023-08-21T08:04:06;2.30;;;2.20;;
11933;SDS011;6026;48.784;9.198;2023-08-21T08:06:31;2.40;;;2.30;;
11933;SDS011;6026;48.784;9.198;2023-08-21T08:08:58;2.33;;;2.22;;
11933;SDS011;6026;48.784;9.198;2023-08-21T08:11:23;2.30;;;2.20;;
11933;SDS011;6026;48.784;9.198;2023-08-21T08:13:49;2.40;;;2.30;;
11933;SDS011;6026;48.784;9.198;2023-08-21T08:16:15;2.40;;;2.30;;
11933;SDS011;6026;48.784;9.198;2023-08-21T08:18:41;2.30;;;2.20;;
11933;SDS011;6026;48.784;9.198;2023-08-21T08:21:07;2.38;;;2.28;;
11933;SDS011;6026;48.784;9.198;2023-08-21T08:23:33;2.40;;;2.30;;
11933;SDS011;6026;48.784;9.198;2023-08-21T08:25:59;2.50;;;2.40;;
11933;SDS011;6026;48.784;9.198;2023-08-21T08:28:25;2.40;;;2.30;;
11933;SDS011;6026;48.784;9.198;2023-08-21T08:30:51;2.50;;;2.40;;
11933;SDS011;6026;48.784;9.198;2023-08-21T08:33:16;2.60;;;2.50;;
11933;SDS011;6026;48.784;9.198;2023-08-21T08:35:42;2.30;;;2.20;;
11933;SDS011;6026;48.784;9.198;2023-08-21T08:38:08;2.40;;;2.30;;
11933;SDS011;6026;48.784;9.198;2023-08-21T08:40:34;2.40;;;2.30;;
11933;SDS011;6026;48.784;9.198;2023-08-21T08:43:04;2.50;;;2.40;;
11933;SDS011;6026;48.784;9.198;2023-08-21T08:45:32;2.60;;;2.50;;
11933;SDS011;6026;48.784;9.198;2023-08-21T08:47:59;2.30;;;2.20;;
11933;SDS011;6026;48.784;9.198;2023-08-21T08:50:29;2.40;;;2.30;;
11933;SDS011;6026;48.784;9.198;2023-08-21T08:52:56;2.20;;;2.10;;
11933;SDS011;6026;48.784;9.198;2023-08-21T08:55:23;2.20;;;2.10;;
11933;SDS011;6026;48.784;9.198;2023-08-21T08:57:49;2.25;;;2.15;;
11933;SDS011;6026;48.784;9.198;2023-08-21T09:00:15;2.20;;;2.10;;
11933;SDS011;6026;48.784;9.198;2023-08-21T09:02:40;2.30;;;2.20;;
11933;SDS011;6026;48.784;9.198;2023-08-21T09:05:06;2.40;;;2.30;;
11933;SDS011;6026;48.784;9.198;2023-08-21T09:07:33;2.40;;;2.30;;
11933;SDS011;6026;48.784;9.198;2023-08-21T09:09:59;2.45;;;2.35;;
11933;SDS011;6026;48.784;9.198;2023-08-21T09:12:25;2.50;;;2.40;;
11933;SDS011;6026;48.784;9.198;2023-08-21T09:14:51;2.30;;;2.20;;
11933;SDS011;6026;48.784;9.198;2023-08-21T09:17:17;2.42;;;2.33;;
11933;SDS011;6026;48.784;9.198;2023-08-21T09:19:42;2.40;;;2.30;;
11933;SDS011;6026;48.784;9.198;2023-08-21T09:22:09;2.30;;;2.20;;
11933;SDS011;6026;48.784;9.198;2023-08-21T09:24:37;2.38;;;2.28;;
11933;SDS011;6026;48.784;9.198;2023-08-21T09:27:03;2.47;;;2.38;;
11933;SDS011;6026;48.784;9.198;2023-08-21T09:29:37;2.40;;;2.30;;
11933;SDS011;6026;48.784;9.198;2023-08-21T09:32:05;2.40;;;2.30;;
11933;SDS011;6026;48.784;9.198;2023-08-21T09:34:35;2.40;;;2.30;;
11933;SDS011;6026;48.784;9.198;2023-08-21T09:37:04;2.55;;;2.45;;
11933;SDS011;6026;48.784;9.198;2023-08-21T09:39:34;2.70;;;2.60;;
11933;SDS011;6026;48.784;9.198;2023-08-21T09:42:02;2.72;;;2.63;;
11933;SDS011;6026;48.784;9.198;2023-08-21T09:44:39;2.60;;;2.50;;
11933;SDS011;6026;48.784;9.198;2023-08-21T09:47:09;2.60;;;2.50;;
11933;SDS011;6026;48.784;9.198;2023-08-21T09:49:38;2.70;;;2.60;;
11933;SDS011;6026;48.784;9.198;2023-08-21T09:52:05;2.70;;;2.60;;
11933;SDS011;6026;48.784;9.198;2023-08-21T09:54:34;2.67;;;2.58;;
11933;SDS011;6026;48.784;9.198;2023-08-21T09:57:01;2.72;;;2.63;;
11933;SDS011;6026;48.784;9.198;2023-08-21T09:59:29;2.70;;;2.60;;
11933;SDS011;6026;48.784;9.198;2023-08-21T10:02:00;2.70;;;2.60;;
11933;SDS011;6026;48.784;9.198;2023-08-21T10:04:30;2.70;;;2.60;;
11933;SDS011;6026;48.784;9.198;2023-08-21T10:06:59;2.80;;;2.70;;
11933;SDS011;6026;48.784;9.198;2023-08-21T10:09:28;2.80;;;2.70;;
11933;SDS011;6026;48.784;9.198;2023-08-21T10:11:54;2.80;;;2.70;;
11933;SDS011;6026;48.784;9.198;2023-08-21T10:14:21;2.80;;;2.70;;
11933;SDS011;6026;48.784;9.198;2023-08-21T10:16:50;2.70;;;2.60;;
11933;SDS011;6026;48.784;9.198;2023-08-21T10:19:17;2.70;;;2.60;;
11933;SDS011;6026;48.784;9.198;2023-08-21T10:21:46;2.97;;;2.78;;
11933;SDS011;6026;48.784;9.198;2023-08-21T10:24:13;2.78;;;2.67;;
11933;SDS011;6026;48.784;9.198;2023-08-21T10:26:52;2.70;;;2.60;;
11933;SDS011;6026;48.784;9.198;2023-08-21T10:29:18;2.70;;;2.60;;
11933;SDS011;6026;48.784;9.198;2023-08-21T10:31:43;2.70;;;2.60;;
11933;SDS011;6026;48.784;9.198;2023-08-21T10:34:09;2.70;;;2.60;;
11933;SDS011;6026;48.784;9.198;2023-08-21T10:39:25;2.65;;;2.55;;
11933;SDS011;6026;48.784;9.198;2023-08-21T10:41:55;2.70;;;2.60;;
11933;SDS011;6026;48.784;9.198;2023-08-21T10:49:42;2.60;;;2.50;;
11933;SDS011;6026;48.784;9.198;2023-08-21T10:52:11;2.60;;;2.50;;
11933;SDS011;6026;48.784;9.198;2023-08-21T10:54:44;2.60;;;2.50;;
11933;SDS011;6026;48.784;9.198;2023-08-21T10:57:10;2.60;;;2.50;;
11933;SDS011;6026;48.784;9.198;2023-08-21T10:59:35;2.60;;;2.50;;
11933;SDS011;6026;48.784;9.198;2023-08-21T11:02:01;2.60;;;2.50;;
11933;SDS011;6026;48.784;9.198;2023-08-21T11:04:26;2.50;;;2.40;;
11933;SDS011;6026;48.784;9.198;2023-08-21T11:06:52;2.50;;;2.40;;
11933;SDS011;6026;48.784;9.198;2023-08-21T11:09:17;2.40;;;2.30;;
11933;SDS011;6026;48.784;9.198;2023-08-21T11:11:44;2.30;;;2.20;;
11933;SDS011;6026;48.784;9.198;2023-08-21T11:14:09;2.20;;;2.10;;
11933;SDS011;6026;48.784;9.198;2023-08-21T11:16:35;2.30;;;2.20;;
11933;SDS011;6026;48.784;9.198;2023-08-21T11:19:04;2.17;;;2.08;;
11933;SDS011;6026;48.784;9.198;2023-08-21T11:21:30;2.10;;;2.00;;
11933;SDS011;6026;48.784;9.198;2023-08-21T11:23:56;2.00;;;1.90;;
11933;SDS011;6026;48.784;9.198;2023-08-21T11:26:21;2.00;;;1.90;;
11933;SDS011;6026;48.784;9.198;2023-08-21T11:28:49;1.90;;;1.80;;
11933;SDS011;6026;48.784;9.198;2023-08-21T11:31:15;1.90;;;1.80;;
11933;SDS011;6026;48.784;9.198;2023-08-21T11:33:41;2.08;;;1.98;;
11933;SDS011;6026;48.784;9.198;2023-08-21T11:36:15;2.00;;;1.90;;
11933;SDS011;6026;48.784;9.198;2023-08-21T11:38:40;1.90;;;1.80;;
11933;SDS011;6026;48.784;9.198;2023-08-21T11:41:06;1.90;;;1.80;;
11933;SDS011;6026;48.784;9.198;2023-08-21T11:46:02;1.60;;;1.60;;
11933;SDS011;6026;48.784;9.198;2023-08-21T11:48:29;1.90;;;1.80;;
11933;SDS011;6026;48.784;9.198;2023-08-21T11:50:55;1.60;;;1.60;;
11933;SDS011;6026;48.784;9.198;2023-08-21T11:53:36;1.80;;;1.70;;
11933;SDS011;6026;48.784;9.198;2023-08-21T11:56:08;1.70;;;1.70;;
11933;SDS011;6026;48.784;9.198;2023-08-21T11:58:42;1.80;;;1.70;;
11933;SDS011;6026;48.784;9.198;2023-08-21T12:01:10;1.90;;;1.80;;
11933;SDS011;6026;48.784;9.198;2023-08-21T12:03:36;1.88;;;1.77;;
11933;SDS011;6026;48.784;9.198;2023-08-21T12:06:10;1.80;;;1.70;;
11933;SDS011;6026;48.784;9.198;2023-08-21T12:08:37;1.90;;;1.80;;
11933;SDS011;6026;48.784;9.198;2023-08-21T12:11:04;1.90;;;1.80;;
11933;SDS011;6026;48.784;9.198;2023-08-21T12:13:30;1.70;;;1.70;;
11933;SDS011;6026;48.784;9.198;2023-08-21T12:15:56;2.00;;;1.90;;
11933;SDS011;6026;48.784;9.198;2023-08-21T12:18:22;1.80;;;1.70;;
11933;SDS011;6026;48.784;9.198;2023-08-21T12:20:48;1.65;;;1.65;;
11933;SDS011;6026;48.784;9.198;2023-08-21T12:23:14;1.60;;;1.60;;
11933;SDS011;6026;48.784;9.198;2023-08-21T12:25:40;1.60;;;1.60;;
11933;SDS011;6026;48.784;9.198;2023-08-21T12:28:06;1.60;;;1.60;;
11933;SDS011;6026;48.784;9.198;2023-08-21T12:30:33;1.60;;;1.60;;
11933;SDS011;6026;48.784;9.198;2023-08-21T12:32:59;1.60;;;1.60;;
11933;SDS011;6026;48.784;9.198;2023-08-21T12:35:24;1.60;;;1.60;;
11933;SDS011;6026;48.784;9.198;2023-08-21T12:37:50;1.70;;;1.70;;
11933;SDS011;6026;48.784;9.198;2023-08-21T12:40:16;1.50;;;1.50;;
11933;SDS011;6026;48.784;9.198;2023-08-21T12:42:41;1.50;;;1.50;;
11933;SDS011;6026;48.784;9.198;2023-08-21T12:45:07;1.58;;;1.58;;
11933;SDS011;6026;48.784;9.198;2023-08-21T12:47:33;1.60;;;1.60;;
11933;SDS011;6026;48.784;9.198;2023-08-21T12:49:58;1.50;;;1.50;;
11933;SDS011;6026;48.784;9.198;2023-08-21T12:52:24;1.60;;;1.60;;
11933;SDS011;6026;48.784;9.198;2023-08-21T12:54:49;1.60;;;1.60;;
11933;SDS011;6026;48.784;9.198;2023-08-21T12:57:15;1.63;;;1.63;;
11933;SDS011;6026;48.784;9.198;2023-08-21T12:59:42;1.60;;;1.60;;
11933;SDS011;6026;48.784;9.198;2023-08-21T13:02:07;1.60;;;1.60;;
11933;SDS011;6026;48.784;9.198;2023-08-21T13:04:33;1.60;;;1.60;;
11933;SDS011;6026;48.784;9.198;2023-08-21T13:06:59;1.60;;;1.60;;
11933;SDS011;6026;48.784;9.198;2023-08-21T13:09:25;1.52;;;1.52;;
11933;SDS011;6026;48.784;9.198;2023-08-21T13:11:51;1.60;;;1.60;;
11933;SDS011;6026;48.784;9.198;2023-08-21T13:14:16;1.55;;;1.55;;
11933;SDS011;6026;48.784;9.198;2023-08-21T13:16:42;1.60;;;1.60;;
11933;SDS011;6026;48.784;9.198;2023-08-21T13:19:07;1.60;;;1.60;;
11933;SDS011;6026;48.784;9.198;2023-08-21T13:21:33;1.60;;;1.60;;
11933;SDS011;6026;48.784;9.198;2023-08-21T13:23:58;1.58;;;1.58;;
11933;SDS011;6026;48.784;9.198;2023-08-21T13:26:24;1.58;;;1.58;;
11933;SDS011;6026;48.784;9.198;2023-08-21T13:28:50;1.50;;;1.50;;
11933;SDS011;6026;48.784;9.198;2023-08-21T13:31:16;1.55;;;1.55;;
11933;SDS011;6026;48.784;9.198;2023-08-21T13:33:48;1.60;;;1.60;;
11933;SDS011;6026;48.784;9.198;2023-08-21T13:36:14;1.50;;;1.50;;
11933;SDS011;6026;48.784;9.198;2023-08-21T13:38:41;1.52;;;1.52;;
11933;SDS011;6026;48.784;9.198;2023-08-21T13:41:07;1.50;;;1.50;;
11933;SDS011;6026;48.784;9.198;2023-08-21T13:43:34;1.60;;;1.60;;
11933;SDS011;6026;48.784;9.198;2023-08-21T13:46:00;1.55;;;1.55;;
11933;SDS011;6026;48.784;9.198;2023-08-21T13:48:26;1.60;;;1.60;;
11933;SDS011;6026;48.784;9.198;2023-08-21T13:50:52;1.50;;;1.50;;
11933;SDS011;6026;48.784;9.198;2023-08-21T13:53:17;1.50;;;1.50;;
11933;SDS011;6026;48.784;9.198;2023-08-21T13:55:43;1.50;;;1.50;;
11933;SDS011;6026;48.784;9.198;2023-08-21T13:58:09;1.50;;;1.50;;
11933;SDS011;6026;48.784;9.198;2023-08-21T14:00:35;1.40;;;1.40;;
11933;SDS011;6026;48.784;9.198;2023-08-21T14:03:00;1.50;;;1.50;;
11933;SDS011;6026;48.784;9.198;2023-08-21T14:05:26;1.50;;;1.50;;
11933;SDS011;6026;48.784;9.198;2023-08-21T14:07:52;1.50;;;1.50;;
11933;SDS011;6026;48.784;9.198;2023-08-21T14:10:18;1.45;;;1.45;;
11933;SDS011;6026;48.784;9.198;2023-08-21T14:12:43;1.50;;;1.50;;
11933;SDS011;6026;48.784;9.198;2023-08-21T14:15:09;1.50;;;1.50;;
11933;SDS011;6026;48.784;9.198;2023-08-21T14:17:35;1.50;;;1.50;;
11933;SDS011;6026;48.784;9.198;2023-08-21T14:20:02;1.30;;;1.30;;
11933;SDS011;6026;48.784;9.198;2023-08-21T14:22:28;1.40;;;1.40;;
11933;SDS011;6026;48.784;9.198;2023-08-21T14:24:53;1.40;;;1.40;;
11933;SDS011;6026;48.784;9.198;2023-08-21T14:27:19;1.40;;;1.40;;
11933;SDS011;6026;48.784;9.198;2023-08-21T14:29:44;1.30;;;1.30;;
11933;SDS011;6026;48.784;9.198;2023-08-21T14:32:10;1.40;;;1.40;;
11933;SDS011;6026;48.784;9.198;2023-08-21T14:34:36;1.40;;;1.40;;
11933;SDS011;6026;48.784;9.198;2023-08-21T14:37:02;1.30;;;1.30;;
11933;SDS011;6026;48.784;9.198;2023-08-21T14:39:29;1.30;;;1.30;;
11933;SDS011;6026;48.784;9.198;2023-08-21T14:41:58;1.20;;;1.20;;
11933;SDS011;6026;48.784;9.198;2023-08-21T14:44:24;1.40;;;1.40;;
11933;SDS011;6026;48.784;9.198;2023-08-21T14:46:52;1.33;;;1.33;;
11933;SDS011;6026;48.784;9.198;2023-08-21T14:49:19;1.30;;;1.30;;
11933;SDS011;6026;48.784;9.198;2023-08-21T14:51:44;1.40;;;1.40;;
11933;SDS011;6026;48.784;9.198;2023-08-21T14:54:10;1.40;;;1.40;;
11933;SDS011;6026;48.784;9.198;2023-08-21T14:56:36;1.40;;;1.40;;
11933;SDS011;6026;48.784;9.198;2023-08-21T14:59:02;1.30;;;1.30;;
11933;SDS011;6026;48.784;9.198;2023-08-21T15:01:28;1.30;;;1.30;;
11933;SDS011;6026;48.784;9.198;2023-08-21T15:03:54;1.30;;;1.30;;
11933;SDS011;6026;48.784;9.198;2023-08-21T15:06:19;1.40;;;1.40;;
11933;SDS011;6026;48.784;9.198;2023-08-21T15:08:45;1.35;;;1.35;;
11933;SDS011;6026;48.784;9.198;2023-08-21T15:11:10;1.30;;;1.30;;